sensor_id;sensor_type;location;lat;lon;timestamp;temperature;humidity
33023;DHT22;19390;51.460;5.710;2023-04-01T00:01:38;10.80;99.90
33023;DHT22;19390;51.460;5.710;2023-04-01T00:04:03;10.70;99.90
33023;DHT22;19390;51.460;5.710;2023-04-01T00:06:29;10.70;99.90
33023;DHT22;19390;51.460;5.710;2023-04-01T00:08:56;10.70;99.90
33023;DHT22;19390;51.460;5.710;2023-04-01T00:11:21;10.80;99.90
33023;DHT22;19390;51.460;5.710;2023-04-01T00:13:47;10.80;99.90
33023;DHT22;19390;51.460;5.710;2023-04-01T00:16:13;10.70;99.90
33023;DHT22;19390;51.460;5.710;2023-04-01T00:18:39;10.70;99.90
33023;DHT22;19390;51.460;5.710;2023-04-01T00:21:05;10.80;99.90
33023;DHT22;19390;51.460;5.710;2023-04-01T00:23:32;10.70;99.90
33023;DHT22;19390;51.460;5.710;2023-04-01T00:25:59;10.70;99.90
33023;DHT22;19390;51.460;5.710;2023-04-01T00:28:26;10.70;99.90
33023;DHT22;19390;51.460;5.710;2023-04-01T00:30:52;10.80;99.90
33023;DHT22;19390;51.460;5.710;2023-04-01T00:33:17;10.80;99.90
33023;DHT22;19390;51.460;5.710;2023-04-01T00:35:43;10.80;99.90
33023;DHT22;19390;51.460;5.710;2023-04-01T00:38:10;10.80;99.90
33023;DHT22;19390;51.460;5.710;2023-04-01T00:40:44;10.80;99.90
33023;DHT22;19390;51.460;5.710;2023-04-01T00:43:17;10.80;99.90
33023;DHT22;19390;51.460;5.710;2023-04-01T00:45:44;10.70;99.90
33023;DHT22;19390;51.460;5.710;2023-04-01T00:50:40;10.70;99.90
33023;DHT22;19390;51.460;5.710;2023-04-01T00:53:07;10.70;99.90
33023;DHT22;19390;51.460;5.710;2023-04-01T00:55:35;10.70;99.90
33023;DHT22;19390;51.460;5.710;2023-04-01T00:58:05;10.70;99.90
33023;DHT22;19390;51.460;5.710;2023-04-01T01:00:33;10.70;99.90
33023;DHT22;19390;51.460;5.710;2023-04-01T01:02:59;10.70;99.90
33023;DHT22;19390;51.460;5.710;2023-04-01T01:05:36;10.70;99.90
33023;DHT22;19390;51.460;5.710;2023-04-01T01:08:30;10.70;99.90
33023;DHT22;19390;51.460;5.710;2023-04-01T01:11:02;10.60;99.90
33023;DHT22;19390;51.460;5.710;2023-04-01T01:16:38;10.70;99.90
33023;DHT22;19390;51.460;5.710;2023-04-01T01:19:19;10.60;99.90
33023;DHT22;19390;51.460;5.710;2023-04-01T01:25:22;10.70;99.90
33023;DHT22;19390;51.460;5.710;2023-04-01T01:34:06;10.80;99.90
33023;DHT22;19390;51.460;5.710;2023-04-01T01:36:38;10.80;99.90
33023;DHT22;19390;51.460;5.710;2023-04-01T01:39:06;10.80;99.90
33023;DHT22;19390;51.460;5.710;2023-04-01T01:41:34;10.80;99.90
33023;DHT22;19390;51.460;5.710;2023-04-01T01:44:03;10.80;99.90
33023;DHT22;19390;51.460;5.710;2023-04-01T01:46:30;10.80;99.90
33023;DHT22;19390;51.460;5.710;2023-04-01T01:48:57;10.80;99.90
33023;DHT22;19390;51.460;5.710;2023-04-01T01:51:26;10.90;99.90
33023;DHT22;19390;51.460;5.710;2023-04-01T01:53:53;10.90;99.90
33023;DHT22;19390;51.460;5.710;2023-04-01T01:56:22;10.90;99.90
33023;DHT22;19390;51.460;5.710;2023-04-01T01:58:52;10.80;99.90
33023;DHT22;19390;51.460;5.710;2023-04-01T02:01:23;10.90;99.90
33023;DHT22;19390;51.460;5.710;2023-04-01T02:03:51;10.90;99.90
33023;DHT22;19390;51.460;5.710;2023-04-01T02:06:19;10.90;99.90
33023;DHT22;19390;51.460;5.710;2023-04-01T02:08:55;10.90;99.90
33023;DHT22;19390;51.460;5.710;2023-04-01T02:11:39;10.90;99.90
33023;DHT22;19390;51.460;5.710;2023-04-01T02:14:14;10.90;99.90
33023;DHT22;19390;51.460;5.710;2023-04-01T02:17:00;10.90;99.90
33023;DHT22;19390;51.460;5.710;2023-04-01T02:19:35;10.90;99.90
33023;DHT22;19390;51.460;5.710;2023-04-01T02:22:03;10.90;99.90
33023;DHT22;19390;51.460;5.710;2023-04-01T02:24:32;10.90;99.90
33023;DHT22;19390;51.460;5.710;2023-04-01T02:27:00;10.90;99.90
33023;DHT22;19390;51.460;5.710;2023-04-01T02:29:26;10.90;99.90
33023;DHT22;19390;51.460;5.710;2023-04-01T02:31:53;11.00;99.90
33023;DHT22;19390;51.460;5.710;2023-04-01T02:34:20;11.00;99.90
33023;DHT22;19390;51.460;5.710;2023-04-01T02:36:47;11.00;99.90
33023;DHT22;19390;51.460;5.710;2023-04-01T02:39:13;11.00;99.90
33023;DHT22;19390;51.460;5.710;2023-04-01T02:41:44;11.00;99.90
33023;DHT22;19390;51.460;5.710;2023-04-01T02:44:12;11.00;99.90
33023;DHT22;19390;51.460;5.710;2023-04-01T02:46:38;11.00;99.90
33023;DHT22;19390;51.460;5.710;2023-04-01T02:49:04;11.00;99.90
33023;DHT22;19390;51.460;5.710;2023-04-01T02:51:30;11.00;99.90
33023;DHT22;19390;51.460;5.710;2023-04-01T02:53:55;11.00;99.90
33023;DHT22;19390;51.460;5.710;2023-04-01T02:56:21;11.00;99.90
33023;DHT22;19390;51.460;5.710;2023-04-01T02:58:47;11.00;99.90
33023;DHT22;19390;51.460;5.710;2023-04-01T03:01:13;11.00;99.90
33023;DHT22;19390;51.460;5.710;2023-04-01T03:03:39;11.00;99.90
33023;DHT22;19390;51.460;5.710;2023-04-01T03:06:08;11.00;99.90
33023;DHT22;19390;51.460;5.710;2023-04-01T03:08:34;10.90;99.90
33023;DHT22;19390;51.460;5.710;2023-04-01T03:11:00;10.90;99.90
33023;DHT22;19390;51.460;5.710;2023-04-01T03:13:26;10.90;99.90
33023;DHT22;19390;51.460;5.710;2023-04-01T03:15:52;10.90;99.90
33023;DHT22;19390;51.460;5.710;2023-04-01T03:18:18;10.90;99.90
33023;DHT22;19390;51.460;5.710;2023-04-01T03:20:44;10.90;99.90
33023;DHT22;19390;51.460;5.710;2023-04-01T03:23:09;10.90;99.90
33023;DHT22;19390;51.460;5.710;2023-04-01T03:25:35;10.90;99.90
33023;DHT22;19390;51.460;5.710;2023-04-01T03:28:01;10.90;99.90
33023;DHT22;19390;51.460;5.710;2023-04-01T03:30:27;10.80;99.90
33023;DHT22;19390;51.460;5.710;2023-04-01T03:32:55;10.80;99.90
33023;DHT22;19390;51.460;5.710;2023-04-01T03:35:21;10.90;99.90
33023;DHT22;19390;51.460;5.710;2023-04-01T03:37:46;10.80;99.90
33023;DHT22;19390;51.460;5.710;2023-04-01T03:40:12;10.80;99.90
33023;DHT22;19390;51.460;5.710;2023-04-01T03:42:38;10.80;99.90
33023;DHT22;19390;51.460;5.710;2023-04-01T03:45:04;10.80;99.90
33023;DHT22;19390;51.460;5.710;2023-04-01T03:47:30;10.80;99.90
33023;DHT22;19390;51.460;5.710;2023-04-01T03:49:56;10.80;99.90
33023;DHT22;19390;51.460;5.710;2023-04-01T03:52:22;10.80;99.90
33023;DHT22;19390;51.460;5.710;2023-04-01T03:54:47;10.90;99.90
33023;DHT22;19390;51.460;5.710;2023-04-01T03:57:13;10.90;99.90
33023;DHT22;19390;51.460;5.710;2023-04-01T03:59:39;10.90;99.90
33023;DHT22;19390;51.460;5.710;2023-04-01T04:02:04;10.80;99.90
33023;DHT22;19390;51.460;5.710;2023-04-01T04:04:30;10.90;99.90
33023;DHT22;19390;51.460;5.710;2023-04-01T04:06:56;10.90;99.90
33023;DHT22;19390;51.460;5.710;2023-04-01T04:09:23;10.90;99.90
33023;DHT22;19390;51.460;5.710;2023-04-01T04:11:49;10.90;99.90
33023;DHT22;19390;51.460;5.710;2023-04-01T04:14:15;10.90;99.90
33023;DHT22;19390;51.460;5.710;2023-04-01T04:16:41;10.90;99.90
33023;DHT22;19390;51.460;5.710;2023-04-01T04:19:06;10.90;99.90
33023;DHT22;19390;51.460;5.710;2023-04-01T04:21:32;10.90;99.90
33023;DHT22;19390;51.460;5.710;2023-04-01T04:24:01;10.90;99.90
33023;DHT22;19390;51.460;5.710;2023-04-01T04:26:27;10.90;99.90
33023;DHT22;19390;51.460;5.710;2023-04-01T04:28:54;10.90;99.90
33023;DHT22;19390;51.460;5.710;2023-04-01T04:31:24;10.90;99.90
33023;DHT22;19390;51.460;5.710;2023-04-01T04:33:50;10.90;99.90
33023;DHT22;19390;51.460;5.710;2023-04-01T04:36:17;10.90;99.90
33023;DHT22;19390;51.460;5.710;2023-04-01T04:38:43;10.90;99.90
33023;DHT22;19390;51.460;5.710;2023-04-01T04:41:16;10.90;99.90
33023;DHT22;19390;51.460;5.710;2023-04-01T04:43:49;10.90;99.90
33023;DHT22;19390;51.460;5.710;2023-04-01T04:46:16;10.90;99.90
33023;DHT22;19390;51.460;5.710;2023-04-01T04:48:42;10.90;99.90
33023;DHT22;19390;51.460;5.710;2023-04-01T04:51:13;10.90;99.90
33023;DHT22;19390;51.460;5.710;2023-04-01T04:53:40;10.80;99.90
33023;DHT22;19390;51.460;5.710;2023-04-01T04:56:05;10.90;99.90
33023;DHT22;19390;51.460;5.710;2023-04-01T04:58:31;10.80;99.90
33023;DHT22;19390;51.460;5.710;2023-04-01T05:00:57;10.80;99.90
33023;DHT22;19390;51.460;5.710;2023-04-01T05:03:22;10.80;99.90
33023;DHT22;19390;51.460;5.710;2023-04-01T05:05:53;10.80;99.90
33023;DHT22;19390;51.460;5.710;2023-04-01T05:08:19;10.80;99.90
33023;DHT22;19390;51.460;5.710;2023-04-01T05:10:46;10.80;99.90
33023;DHT22;19390;51.460;5.710;2023-04-01T05:13:11;10.80;99.90
33023;DHT22;19390;51.460;5.710;2023-04-01T05:15:37;10.80;99.90
33023;DHT22;19390;51.460;5.710;2023-04-01T05:18:03;10.80;99.90
33023;DHT22;19390;51.460;5.710;2023-04-01T05:20:29;10.80;99.90
33023;DHT22;19390;51.460;5.710;2023-04-01T05:22:58;10.80;99.90
33023;DHT22;19390;51.460;5.710;2023-04-01T05:25:24;10.80;99.90
33023;DHT22;19390;51.460;5.710;2023-04-01T05:27:50;10.80;99.90
33023;DHT22;19390;51.460;5.710;2023-04-01T05:30:16;10.80;99.90
33023;DHT22;19390;51.460;5.710;2023-04-01T05:32:42;10.80;99.90
33023;DHT22;19390;51.460;5.710;2023-04-01T05:35:09;10.80;99.90
33023;DHT22;19390;51.460;5.710;2023-04-01T05:37:35;10.80;99.90
33023;DHT22;19390;51.460;5.710;2023-04-01T05:40:01;10.80;99.90
33023;DHT22;19390;51.460;5.710;2023-04-01T05:42:27;10.70;99.90
33023;DHT22;19390;51.460;5.710;2023-04-01T05:44:53;10.80;99.90
33023;DHT22;19390;51.460;5.710;2023-04-01T05:47:18;10.80;99.90
33023;DHT22;19390;51.460;5.710;2023-04-01T05:49:44;10.70;99.90
33023;DHT22;19390;51.460;5.710;2023-04-01T05:52:10;10.80;99.90
33023;DHT22;19390;51.460;5.710;2023-04-01T05:54:35;10.80;99.90
33023;DHT22;19390;51.460;5.710;2023-04-01T05:57:01;10.70;99.90
33023;DHT22;19390;51.460;5.710;2023-04-01T05:59:26;10.70;99.90
33023;DHT22;19390;51.460;5.710;2023-04-01T06:01:52;10.70;99.90
33023;DHT22;19390;51.460;5.710;2023-04-01T06:04:18;10.70;99.90
33023;DHT22;19390;51.460;5.710;2023-04-01T06:06:44;10.70;99.90
33023;DHT22;19390;51.460;5.710;2023-04-01T06:09:27;10.60;99.90
33023;DHT22;19390;51.460;5.710;2023-04-01T06:14:51;10.60;99.90
33023;DHT22;19390;51.460;5.710;2023-04-01T06:17:35;10.60;99.90
33023;DHT22;19390;51.460;5.710;2023-04-01T06:22:55;10.70;99.90
33023;DHT22;19390;51.460;5.710;2023-04-01T06:25:46;10.70;99.90
33023;DHT22;19390;51.460;5.710;2023-04-01T06:36:47;10.70;99.90
33023;DHT22;19390;51.460;5.710;2023-04-01T06:50:45;10.70;99.90
33023;DHT22;19390;51.460;5.710;2023-04-01T06:53:35;10.80;99.90
33023;DHT22;19390;51.460;5.710;2023-04-01T06:56:16;10.80;99.90
33023;DHT22;19390;51.460;5.710;2023-04-01T06:58:53;10.80;99.90
33023;DHT22;19390;51.460;5.710;2023-04-01T07:01:34;10.80;99.90
33023;DHT22;19390;51.460;5.710;2023-04-01T07:04:06;10.90;99.90
33023;DHT22;19390;51.460;5.710;2023-04-01T07:06:36;10.80;99.90
33023;DHT22;19390;51.460;5.710;2023-04-01T07:09:06;10.90;99.90
33023;DHT22;19390;51.460;5.710;2023-04-01T07:11:35;10.90;99.90
33023;DHT22;19390;51.460;5.710;2023-04-01T07:16:56;10.90;99.90
33023;DHT22;19390;51.460;5.710;2023-04-01T07:19:26;11.00;99.90
33023;DHT22;19390;51.460;5.710;2023-04-01T07:22:05;11.00;99.90
33023;DHT22;19390;51.460;5.710;2023-04-01T07:24:38;11.10;99.90
33023;DHT22;19390;51.460;5.710;2023-04-01T07:27:09;11.30;99.90
33023;DHT22;19390;51.460;5.710;2023-04-01T07:29:35;11.40;99.90
33023;DHT22;19390;51.460;5.710;2023-04-01T07:35:16;11.30;99.90
33023;DHT22;19390;51.460;5.710;2023-04-01T07:57:03;11.10;99.90
33023;DHT22;19390;51.460;5.710;2023-04-01T08:08:27;11.10;99.90
33023;DHT22;19390;51.460;5.710;2023-04-01T08:11:07;11.30;99.90
33023;DHT22;19390;51.460;5.710;2023-04-01T08:14:01;11.40;99.90
33023;DHT22;19390;51.460;5.710;2023-04-01T08:19:15;11.60;99.90
33023;DHT22;19390;51.460;5.710;2023-04-01T08:21:48;11.50;99.90
33023;DHT22;19390;51.460;5.710;2023-04-01T08:24:41;11.50;99.90
33023;DHT22;19390;51.460;5.710;2023-04-01T08:32:42;11.60;99.90
33023;DHT22;19390;51.460;5.710;2023-04-01T08:35:21;11.60;99.90
33023;DHT22;19390;51.460;5.710;2023-04-01T08:37:50;11.40;99.90
33023;DHT22;19390;51.460;5.710;2023-04-01T08:51:17;11.00;99.90
33023;DHT22;19390;51.460;5.710;2023-04-01T08:56:28;11.00;99.90
33023;DHT22;19390;51.460;5.710;2023-04-01T09:04:36;11.20;99.90
33023;DHT22;19390;51.460;5.710;2023-04-01T09:07:20;11.10;99.90
33023;DHT22;19390;51.460;5.710;2023-04-01T09:10:11;11.10;99.90
33023;DHT22;19390;51.460;5.710;2023-04-01T09:15:30;11.20;99.90
33023;DHT22;19390;51.460;5.710;2023-04-01T09:18:16;11.10;99.90
33023;DHT22;19390;51.460;5.710;2023-04-01T09:21:14;11.30;99.90
33023;DHT22;19390;51.460;5.710;2023-04-01T09:24:13;11.30;99.90
33023;DHT22;19390;51.460;5.710;2023-04-01T09:43:27;11.50;99.90
33023;DHT22;19390;51.460;5.710;2023-04-01T10:28:12;11.40;99.90
33023;DHT22;19390;51.460;5.710;2023-04-01T10:31:14;11.30;99.90
33023;DHT22;19390;51.460;5.710;2023-04-01T10:45:31;11.30;99.90
33023;DHT22;19390;51.460;5.710;2023-04-01T10:50:47;11.20;99.90
33023;DHT22;19390;51.460;5.710;2023-04-01T10:56:29;11.10;99.90
33023;DHT22;19390;51.460;5.710;2023-04-01T10:59:28;11.00;99.90
33023;DHT22;19390;51.460;5.710;2023-04-01T11:16:29;11.50;99.90
33023;DHT22;19390;51.460;5.710;2023-04-01T11:19:25;11.60;99.90
33023;DHT22;19390;51.460;5.710;2023-04-01T11:24:45;11.50;99.90
33023;DHT22;19390;51.460;5.710;2023-04-01T11:30:22;11.50;99.90
33023;DHT22;19390;51.460;5.710;2023-04-01T11:33:14;11.30;99.90
33023;DHT22;19390;51.460;5.710;2023-04-01T11:38:57;11.30;99.90
33023;DHT22;19390;51.460;5.710;2023-04-01T11:41:56;11.30;99.90
33023;DHT22;19390;51.460;5.710;2023-04-01T11:44:29;11.50;99.90
33023;DHT22;19390;51.460;5.710;2023-04-01T11:52:47;11.40;99.90
33023;DHT22;19390;51.460;5.710;2023-04-01T12:01:11;11.60;99.90
33023;DHT22;19390;51.460;5.710;2023-04-01T12:03:51;11.50;99.90
33023;DHT22;19390;51.460;5.710;2023-04-01T12:06:58;11.50;99.90
33023;DHT22;19390;51.460;5.710;2023-04-01T12:18:46;11.50;99.90
33023;DHT22;19390;51.460;5.710;2023-04-01T12:22:03;11.50;99.90
33023;DHT22;19390;51.460;5.710;2023-04-01T12:35:20;12.20;99.90
33023;DHT22;19390;51.460;5.710;2023-04-01T12:49:00;11.70;99.90
33023;DHT22;19390;51.460;5.710;2023-04-01T12:54:28;11.60;99.90
33023;DHT22;19390;51.460;5.710;2023-04-01T13:00:03;11.50;99.90
33023;DHT22;19390;51.460;5.710;2023-04-01T13:17:08;11.40;99.90
33023;DHT22;19390;51.460;5.710;2023-04-01T13:25:10;11.40;99.90
33023;DHT22;19390;51.460;5.710;2023-04-01T13:27:44;11.40;99.90
33023;DHT22;19390;51.460;5.710;2023-04-01T13:32:59;11.50;99.90
33023;DHT22;19390;51.460;5.710;2023-04-01T13:38:29;11.60;99.90
33023;DHT22;19390;51.460;5.710;2023-04-01T13:41:08;11.40;99.90
33023;DHT22;19390;51.460;5.710;2023-04-01T13:43:42;11.40;99.90
33023;DHT22;19390;51.460;5.710;2023-04-01T13:46:54;11.30;99.90
33023;DHT22;19390;51.460;5.710;2023-04-01T13:52:55;11.50;99.90
33023;DHT22;19390;51.460;5.710;2023-04-01T13:58:50;11.60;99.90
33023;DHT22;19390;51.460;5.710;2023-04-01T14:07:08;11.60;99.90
33023;DHT22;19390;51.460;5.710;2023-04-01T14:12:45;11.50;99.90
33023;DHT22;19390;51.460;5.710;2023-04-01T14:24:04;11.50;99.90
33023;DHT22;19390;51.460;5.710;2023-04-01T14:26:45;11.50;99.90
33023;DHT22;19390;51.460;5.710;2023-04-01T14:29:24;11.50;99.90
33023;DHT22;19390;51.460;5.710;2023-04-01T14:32:02;11.60;99.90
33023;DHT22;19390;51.460;5.710;2023-04-01T14:40:27;11.70;99.90
33023;DHT22;19390;51.460;5.710;2023-04-01T14:43:28;11.50;99.90
33023;DHT22;19390;51.460;5.710;2023-04-01T14:46:08;11.50;99.90
33023;DHT22;19390;51.460;5.710;2023-04-01T14:51:38;11.60;99.90
33023;DHT22;19390;51.460;5.710;2023-04-01T14:54:37;11.60;99.90
33023;DHT22;19390;51.460;5.710;2023-04-01T14:57:23;11.80;99.90
33023;DHT22;19390;51.460;5.710;2023-04-01T15:00:17;11.70;99.90
33023;DHT22;19390;51.460;5.710;2023-04-01T15:14:29;11.50;99.90
33023;DHT22;19390;51.460;5.710;2023-04-01T15:22:37;11.50;99.90
33023;DHT22;19390;51.460;5.710;2023-04-01T15:25:34;11.80;99.90
33023;DHT22;19390;51.460;5.710;2023-04-01T15:31:11;12.20;99.90
33023;DHT22;19390;51.460;5.710;2023-04-01T15:33:52;12.30;99.90
33023;DHT22;19390;51.460;5.710;2023-04-01T15:36:51;12.00;99.90
33023;DHT22;19390;51.460;5.710;2023-04-01T15:39:38;12.20;99.90
33023;DHT22;19390;51.460;5.710;2023-04-01T15:50:11;11.90;99.90
33023;DHT22;19390;51.460;5.710;2023-04-01T16:17:00;11.50;99.90
33023;DHT22;19390;51.460;5.710;2023-04-01T16:22:08;11.40;99.90
33023;DHT22;19390;51.460;5.710;2023-04-01T16:27:46;11.40;99.90
33023;DHT22;19390;51.460;5.710;2023-04-01T16:30:41;11.40;99.90
33023;DHT22;19390;51.460;5.710;2023-04-01T16:36:20;11.30;99.90
33023;DHT22;19390;51.460;5.710;2023-04-01T16:39:25;11.30;99.90
33023;DHT22;19390;51.460;5.710;2023-04-01T16:42:13;11.40;99.90
33023;DHT22;19390;51.460;5.710;2023-04-01T16:47:54;11.30;99.90
33023;DHT22;19390;51.460;5.710;2023-04-01T16:55:44;11.30;99.90
33023;DHT22;19390;51.460;5.710;2023-04-01T16:58:25;11.20;99.90
33023;DHT22;19390;51.460;5.710;2023-04-01T17:03:46;11.20;99.90
33023;DHT22;19390;51.460;5.710;2023-04-01T17:06:25;11.20;99.90
33023;DHT22;19390;51.460;5.710;2023-04-01T17:14:27;11.20;99.90
33023;DHT22;19390;51.460;5.710;2023-04-01T17:19:55;11.20;99.90
33023;DHT22;19390;51.460;5.710;2023-04-01T17:25:28;11.20;99.90
33023;DHT22;19390;51.460;5.710;2023-04-01T17:28:11;11.20;99.90
33023;DHT22;19390;51.460;5.710;2023-04-01T17:31:22;11.20;99.90
33023;DHT22;19390;51.460;5.710;2023-04-01T17:39:54;11.20;99.90
33023;DHT22;19390;51.460;5.710;2023-04-01T17:42:48;11.30;99.90
33023;DHT22;19390;51.460;5.710;2023-04-01T17:45:49;11.30;99.90
33023;DHT22;19390;51.460;5.710;2023-04-01T17:54:01;11.40;99.90
33023;DHT22;19390;51.460;5.710;2023-04-01T17:56:40;11.50;99.90
33023;DHT22;19390;51.460;5.710;2023-04-01T17:59:27;11.50;99.90
33023;DHT22;19390;51.460;5.710;2023-04-01T18:09:41;11.50;99.90
33023;DHT22;19390;51.460;5.710;2023-04-01T18:12:21;11.50;99.90
33023;DHT22;19390;51.460;5.710;2023-04-01T18:15:10;11.50;99.90
33023;DHT22;19390;51.460;5.710;2023-04-01T18:18:02;11.50;99.90
33023;DHT22;19390;51.460;5.710;2023-04-01T18:23:24;11.60;99.90
33023;DHT22;19390;51.460;5.710;2023-04-01T18:26:04;11.60;99.90
33023;DHT22;19390;51.460;5.710;2023-04-01T18:36:40;11.70;99.90
33023;DHT22;19390;51.460;5.710;2023-04-01T18:39:17;11.70;99.90
33023;DHT22;19390;51.460;5.710;2023-04-01T18:44:47;11.60;99.90
33023;DHT22;19390;51.460;5.710;2023-04-01T18:50:05;11.40;99.90
33023;DHT22;19390;51.460;5.710;2023-04-01T18:52:42;11.30;99.90
33023;DHT22;19390;51.460;5.710;2023-04-01T18:57:49;11.20;99.90
33023;DHT22;19390;51.460;5.710;2023-04-01T19:00:32;11.20;99.90
33023;DHT22;19390;51.460;5.710;2023-04-01T19:05:42;11.10;99.90
33023;DHT22;19390;51.460;5.710;2023-04-01T19:11:10;11.20;99.90
33023;DHT22;19390;51.460;5.710;2023-04-01T19:13:52;11.10;99.90
33023;DHT22;19390;51.460;5.710;2023-04-01T19:16:46;11.10;99.90
33023;DHT22;19390;51.460;5.710;2023-04-01T19:44:39;10.70;99.90
33023;DHT22;19390;51.460;5.710;2023-04-01T19:47:35;10.70;99.90
33023;DHT22;19390;51.460;5.710;2023-04-01T19:50:27;10.70;99.90
33023;DHT22;19390;51.460;5.710;2023-04-01T19:52:57;10.70;99.90
33023;DHT22;19390;51.460;5.710;2023-04-01T19:55:42;10.60;99.90
33023;DHT22;19390;51.460;5.710;2023-04-01T20:00:51;10.60;99.90
33023;DHT22;19390;51.460;5.710;2023-04-01T20:05:59;10.50;99.90
33023;DHT22;19390;51.460;5.710;2023-04-01T20:08:45;10.50;99.90
33023;DHT22;19390;51.460;5.710;2023-04-01T20:11:49;10.40;99.90
33023;DHT22;19390;51.460;5.710;2023-04-01T20:14:40;10.40;99.90
33023;DHT22;19390;51.460;5.710;2023-04-01T20:17:38;10.30;99.90
33023;DHT22;19390;51.460;5.710;2023-04-01T20:33:05;10.10;99.90
33023;DHT22;19390;51.460;5.710;2023-04-01T20:36:04;10.10;99.90
33023;DHT22;19390;51.460;5.710;2023-04-01T20:38:47;10.00;99.90
33023;DHT22;19390;51.460;5.710;2023-04-01T20:41:37;10.00;99.90
33023;DHT22;19390;51.460;5.710;2023-04-01T20:44:12;9.90;99.90
33023;DHT22;19390;51.460;5.710;2023-04-01T20:55:04;9.70;99.90
33023;DHT22;19390;51.460;5.710;2023-04-01T20:58:05;9.80;99.90
33023;DHT22;19390;51.460;5.710;2023-04-01T21:00:59;9.80;99.90
33023;DHT22;19390;51.460;5.710;2023-04-01T21:09:02;9.80;99.90
33023;DHT22;19390;51.460;5.710;2023-04-01T21:23:04;9.60;99.90
33023;DHT22;19390;51.460;5.710;2023-04-01T21:28:50;9.50;99.90
33023;DHT22;19390;51.460;5.710;2023-04-01T21:40:18;9.40;99.90
33023;DHT22;19390;51.460;5.710;2023-04-01T21:43:44;9.30;99.90
33023;DHT22;19390;51.460;5.710;2023-04-01T21:46:32;9.30;99.90
33023;DHT22;19390;51.460;5.710;2023-04-01T21:56:37;9.10;99.90
33023;DHT22;19390;51.460;5.710;2023-04-01T22:02:13;9.10;99.90
33023;DHT22;19390;51.460;5.710;2023-04-01T22:07:30;9.00;99.90
33023;DHT22;19390;51.460;5.710;2023-04-01T22:10:05;9.00;99.90
33023;DHT22;19390;51.460;5.710;2023-04-01T22:12:50;9.00;99.90
33023;DHT22;19390;51.460;5.710;2023-04-01T22:15:50;9.00;99.90
33023;DHT22;19390;51.460;5.710;2023-04-01T22:18:43;9.00;99.90
33023;DHT22;19390;51.460;5.710;2023-04-01T22:21:26;8.90;99.90
33023;DHT22;19390;51.460;5.710;2023-04-01T22:24:01;8.90;99.90
33023;DHT22;19390;51.460;5.710;2023-04-01T22:26:38;8.80;99.90
33023;DHT22;19390;51.460;5.710;2023-04-01T22:29:59;8.80;99.90
33023;DHT22;19390;51.460;5.710;2023-04-01T22:32:30;8.70;99.90
33023;DHT22;19390;51.460;5.710;2023-04-01T22:43:06;8.60;99.90
33023;DHT22;19390;51.460;5.710;2023-04-01T22:46:10;8.50;99.90
33023;DHT22;19390;51.460;5.710;2023-04-01T22:48:43;8.50;99.90
33023;DHT22;19390;51.460;5.710;2023-04-01T22:51:43;8.40;99.90
33023;DHT22;19390;51.460;5.710;2023-04-01T22:54:45;8.40;99.90
33023;DHT22;19390;51.460;5.710;2023-04-01T22:59:50;8.40;99.90
33023;DHT22;19390;51.460;5.710;2023-04-01T23:02:28;8.40;99.90
33023;DHT22;19390;51.460;5.710;2023-04-01T23:04:58;8.30;99.90
33023;DHT22;19390;51.460;5.710;2023-04-01T23:07:33;8.30;99.90
33023;DHT22;19390;51.460;5.710;2023-04-01T23:10:05;8.30;99.90
33023;DHT22;19390;51.460;5.710;2023-04-01T23:12:38;8.30;99.90
33023;DHT22;19390;51.460;5.710;2023-04-01T23:15:12;8.30;99.90
33023;DHT22;19390;51.460;5.710;2023-04-01T23:20:28;8.20;99.90
33023;DHT22;19390;51.460;5.710;2023-04-01T23:23:29;8.20;99.90
33023;DHT22;19390;51.460;5.710;2023-04-01T23:26:21;8.20;99.90
33023;DHT22;19390;51.460;5.710;2023-04-01T23:28:53;8.20;99.90
33023;DHT22;19390;51.460;5.710;2023-04-01T23:31:34;8.20;99.90
33023;DHT22;19390;51.460;5.710;2023-04-01T23:34:21;8.20;99.90
33023;DHT22;19390;51.460;5.710;2023-04-01T23:36:50;8.20;99.90
33023;DHT22;19390;51.460;5.710;2023-04-01T23:39:21;8.20;99.90
33023;DHT22;19390;51.460;5.710;2023-04-01T23:41:48;8.10;99.90
33023;DHT22;19390;51.460;5.710;2023-04-01T23:44:15;8.00;99.90
33023;DHT22;19390;51.460;5.710;2023-04-01T23:46:42;8.00;99.90
33023;DHT22;19390;51.460;5.710;2023-04-01T23:49:17;8.00;99.90
33023;DHT22;19390;51.460;5.710;2023-04-01T23:51:59;8.00;99.90
33023;DHT22;19390;51.460;5.710;2023-04-01T23:54:34;8.00;99.90
33023;DHT22;19390;51.460;5.710;2023-04-01T23:57:13;8.00;99.90
33023;DHT22;19390;51.460;5.710;2023-04-01T23:59:40;7.90;99.90
